sensor_id;sensor_type;location;lat;lon;timestamp;temperature;humidity
58638;DHT22;54976;51.510;7.522;2023-06-05T00:01:19;14.40;88.70
58638;DHT22;54976;51.510;7.522;2023-06-05T00:04:19;14.40;89.10
58638;DHT22;54976;51.510;7.522;2023-06-05T00:07:21;14.30;89.60
58638;DHT22;54976;51.510;7.522;2023-06-05T00:10:21;14.30;90.30
58638;DHT22;54976;51.510;7.522;2023-06-05T00:13:22;14.20;90.70
58638;DHT22;54976;51.510;7.522;2023-06-05T00:16:23;14.10;91.30
58638;DHT22;54976;51.510;7.522;2023-06-05T00:19:23;14.10;91.60
58638;DHT22;54976;51.510;7.522;2023-06-05T00:22:26;14.20;91.70
58638;DHT22;54976;51.510;7.522;2023-06-05T00:25:28;14.20;91.70
58638;DHT22;54976;51.510;7.522;2023-06-05T00:28:28;14.00;91.60
58638;DHT22;54976;51.510;7.522;2023-06-05T00:31:29;13.90;91.70
58638;DHT22;54976;51.510;7.522;2023-06-05T00:34:30;13.90;92.10
58638;DHT22;54976;51.510;7.522;2023-06-05T00:37:31;13.80;92.40
58638;DHT22;54976;51.510;7.522;2023-06-05T00:40:33;13.80;92.40
58638;DHT22;54976;51.510;7.522;2023-06-05T00:43:34;13.70;92.50
58638;DHT22;54976;51.510;7.522;2023-06-05T00:46:35;13.80;92.70
58638;DHT22;54976;51.510;7.522;2023-06-05T00:49:36;13.70;92.90
58638;DHT22;54976;51.510;7.522;2023-06-05T00:52:36;13.60;92.90
58638;DHT22;54976;51.510;7.522;2023-06-05T00:55:37;13.60;93.20
58638;DHT22;54976;51.510;7.522;2023-06-05T00:58:38;13.60;93.20
58638;DHT22;54976;51.510;7.522;2023-06-05T01:01:39;13.60;93.10
58638;DHT22;54976;51.510;7.522;2023-06-05T01:04:40;13.50;93.30
58638;DHT22;54976;51.510;7.522;2023-06-05T01:07:43;13.50;93.60
58638;DHT22;54976;51.510;7.522;2023-06-05T01:10:44;13.40;93.70
58638;DHT22;54976;51.510;7.522;2023-06-05T01:13:53;13.50;93.80
58638;DHT22;54976;51.510;7.522;2023-06-05T01:16:56;13.40;93.90
58638;DHT22;54976;51.510;7.522;2023-06-05T01:20:01;13.30;93.80
58638;DHT22;54976;51.510;7.522;2023-06-05T01:23:08;13.30;93.80
58638;DHT22;54976;51.510;7.522;2023-06-05T01:26:15;13.20;94.10
58638;DHT22;54976;51.510;7.522;2023-06-05T01:29:24;13.20;94.30
58638;DHT22;54976;51.510;7.522;2023-06-05T01:32:49;13.20;94.10
58638;DHT22;54976;51.510;7.522;2023-06-05T01:35:54;13.10;94.10
58638;DHT22;54976;51.510;7.522;2023-06-05T01:38:56;13.10;94.10
58638;DHT22;54976;51.510;7.522;2023-06-05T01:41:58;13.00;94.40
58638;DHT22;54976;51.510;7.522;2023-06-05T01:44:59;13.00;94.80
58638;DHT22;54976;51.510;7.522;2023-06-05T01:48:00;12.90;95.00
58638;DHT22;54976;51.510;7.522;2023-06-05T01:51:01;12.90;95.00
58638;DHT22;54976;51.510;7.522;2023-06-05T01:54:02;12.80;95.40
58638;DHT22;54976;51.510;7.522;2023-06-05T01:57:03;12.70;95.60
58638;DHT22;54976;51.510;7.522;2023-06-05T02:00:05;12.70;95.80
58638;DHT22;54976;51.510;7.522;2023-06-05T02:03:09;12.70;95.70
58638;DHT22;54976;51.510;7.522;2023-06-05T02:06:09;12.60;96.30
58638;DHT22;54976;51.510;7.522;2023-06-05T02:09:10;12.50;96.90
58638;DHT22;54976;51.510;7.522;2023-06-05T02:12:11;12.50;97.50
58638;DHT22;54976;51.510;7.522;2023-06-05T02:15:14;12.50;97.60
58638;DHT22;54976;51.510;7.522;2023-06-05T02:18:15;12.40;97.90
58638;DHT22;54976;51.510;7.522;2023-06-05T02:21:17;12.40;98.20
58638;DHT22;54976;51.510;7.522;2023-06-05T02:24:17;12.30;98.30
58638;DHT22;54976;51.510;7.522;2023-06-05T02:27:21;12.30;98.30
58638;DHT22;54976;51.510;7.522;2023-06-05T02:30:24;12.30;98.30
58638;DHT22;54976;51.510;7.522;2023-06-05T02:33:25;12.20;98.50
58638;DHT22;54976;51.510;7.522;2023-06-05T02:36:26;12.20;98.60
58638;DHT22;54976;51.510;7.522;2023-06-05T02:39:27;12.10;98.70
58638;DHT22;54976;51.510;7.522;2023-06-05T02:42:28;12.10;98.60
58638;DHT22;54976;51.510;7.522;2023-06-05T02:45:28;12.10;98.60
58638;DHT22;54976;51.510;7.522;2023-06-05T02:48:29;12.00;98.70
58638;DHT22;54976;51.510;7.522;2023-06-05T02:51:29;12.00;98.60
58638;DHT22;54976;51.510;7.522;2023-06-05T02:54:30;12.00;99.00
58638;DHT22;54976;51.510;7.522;2023-06-05T02:57:31;11.90;99.00
58638;DHT22;54976;51.510;7.522;2023-06-05T03:00:33;11.80;98.90
58638;DHT22;54976;51.510;7.522;2023-06-05T03:03:34;11.80;99.00
58638;DHT22;54976;51.510;7.522;2023-06-05T03:06:35;11.80;99.00
58638;DHT22;54976;51.510;7.522;2023-06-05T03:09:36;11.70;99.10
58638;DHT22;54976;51.510;7.522;2023-06-05T03:12:37;11.70;99.10
58638;DHT22;54976;51.510;7.522;2023-06-05T03:15:37;11.80;98.90
58638;DHT22;54976;51.510;7.522;2023-06-05T03:18:38;11.70;99.00
58638;DHT22;54976;51.510;7.522;2023-06-05T03:21:39;11.70;99.10
58638;DHT22;54976;51.510;7.522;2023-06-05T03:24:41;11.60;99.40
58638;DHT22;54976;51.510;7.522;2023-06-05T03:27:42;11.60;99.20
58638;DHT22;54976;51.510;7.522;2023-06-05T03:30:42;11.60;99.60
58638;DHT22;54976;51.510;7.522;2023-06-05T03:33:43;11.50;99.90
58638;DHT22;54976;51.510;7.522;2023-06-05T03:36:44;11.50;99.80
58638;DHT22;54976;51.510;7.522;2023-06-05T03:39:44;11.40;99.90
58638;DHT22;54976;51.510;7.522;2023-06-05T03:42:45;11.40;99.90
58638;DHT22;54976;51.510;7.522;2023-06-05T03:45:45;11.40;99.90
58638;DHT22;54976;51.510;7.522;2023-06-05T03:48:47;11.40;99.90
58638;DHT22;54976;51.510;7.522;2023-06-05T03:51:49;11.40;99.90
58638;DHT22;54976;51.510;7.522;2023-06-05T03:54:50;11.40;99.90
58638;DHT22;54976;51.510;7.522;2023-06-05T03:57:55;11.40;99.90
58638;DHT22;54976;51.510;7.522;2023-06-05T04:00:57;11.40;99.90
58638;DHT22;54976;51.510;7.522;2023-06-05T04:03:58;11.40;99.90
58638;DHT22;54976;51.510;7.522;2023-06-05T04:06:58;11.40;99.90
58638;DHT22;54976;51.510;7.522;2023-06-05T04:09:59;11.40;99.90
58638;DHT22;54976;51.510;7.522;2023-06-05T04:12:59;11.40;99.90
58638;DHT22;54976;51.510;7.522;2023-06-05T04:16:00;11.50;99.70
58638;DHT22;54976;51.510;7.522;2023-06-05T04:19:02;11.50;99.70
58638;DHT22;54976;51.510;7.522;2023-06-05T04:22:03;11.50;99.70
58638;DHT22;54976;51.510;7.522;2023-06-05T04:25:04;11.50;99.90
58638;DHT22;54976;51.510;7.522;2023-06-05T04:28:04;11.50;99.90
58638;DHT22;54976;51.510;7.522;2023-06-05T04:31:05;11.50;99.90
58638;DHT22;54976;51.510;7.522;2023-06-05T04:34:07;11.50;99.70
58638;DHT22;54976;51.510;7.522;2023-06-05T04:37:08;11.50;99.70
58638;DHT22;54976;51.510;7.522;2023-06-05T04:40:10;11.50;99.90
58638;DHT22;54976;51.510;7.522;2023-06-05T04:43:10;11.60;99.90
58638;DHT22;54976;51.510;7.522;2023-06-05T04:46:11;11.60;99.60
58638;DHT22;54976;51.510;7.522;2023-06-05T04:49:13;11.70;99.70
58638;DHT22;54976;51.510;7.522;2023-06-05T04:52:13;11.70;99.50
58638;DHT22;54976;51.510;7.522;2023-06-05T04:55:14;11.70;99.60
58638;DHT22;54976;51.510;7.522;2023-06-05T04:58:15;11.70;99.80
58638;DHT22;54976;51.510;7.522;2023-06-05T05:01:16;11.80;99.30
58638;DHT22;54976;51.510;7.522;2023-06-05T05:04:17;11.80;99.20
58638;DHT22;54976;51.510;7.522;2023-06-05T05:07:17;11.90;99.10
58638;DHT22;54976;51.510;7.522;2023-06-05T05:10:19;12.00;98.90
58638;DHT22;54976;51.510;7.522;2023-06-05T05:13:19;12.10;98.80
58638;DHT22;54976;51.510;7.522;2023-06-05T05:16:20;12.20;98.60
58638;DHT22;54976;51.510;7.522;2023-06-05T05:19:22;12.20;98.40
58638;DHT22;54976;51.510;7.522;2023-06-05T05:22:22;12.30;98.00
58638;DHT22;54976;51.510;7.522;2023-06-05T05:25:23;12.40;97.70
58638;DHT22;54976;51.510;7.522;2023-06-05T05:28:23;12.40;97.60
58638;DHT22;54976;51.510;7.522;2023-06-05T05:31:24;12.60;97.10
58638;DHT22;54976;51.510;7.522;2023-06-05T05:34:25;12.90;96.70
58638;DHT22;54976;51.510;7.522;2023-06-05T05:37:25;12.90;96.20
58638;DHT22;54976;51.510;7.522;2023-06-05T05:40:26;13.00;96.00
58638;DHT22;54976;51.510;7.522;2023-06-05T05:43:27;13.20;95.70
58638;DHT22;54976;51.510;7.522;2023-06-05T05:46:27;13.30;95.30
58638;DHT22;54976;51.510;7.522;2023-06-05T05:49:28;13.60;95.00
58638;DHT22;54976;51.510;7.522;2023-06-05T05:52:29;13.90;94.70
58638;DHT22;54976;51.510;7.522;2023-06-05T05:55:29;14.10;93.90
58638;DHT22;54976;51.510;7.522;2023-06-05T05:58:30;14.30;93.70
58638;DHT22;54976;51.510;7.522;2023-06-05T06:01:32;14.40;93.40
58638;DHT22;54976;51.510;7.522;2023-06-05T06:04:32;14.40;93.40
58638;DHT22;54976;51.510;7.522;2023-06-05T06:07:33;14.60;93.20
58638;DHT22;54976;51.510;7.522;2023-06-05T06:10:34;14.80;92.70
58638;DHT22;54976;51.510;7.522;2023-06-05T06:13:34;14.90;92.20
58638;DHT22;54976;51.510;7.522;2023-06-05T06:16:36;14.80;92.10
58638;DHT22;54976;51.510;7.522;2023-06-05T06:19:37;14.90;92.20
58638;DHT22;54976;51.510;7.522;2023-06-05T06:22:38;14.80;91.90
58638;DHT22;54976;51.510;7.522;2023-06-05T06:25:39;14.90;91.90
58638;DHT22;54976;51.510;7.522;2023-06-05T06:28:40;14.70;92.50
58638;DHT22;54976;51.510;7.522;2023-06-05T06:31:41;14.90;92.10
58638;DHT22;54976;51.510;7.522;2023-06-05T06:34:42;15.00;92.20
58638;DHT22;54976;51.510;7.522;2023-06-05T06:37:45;15.10;92.20
58638;DHT22;54976;51.510;7.522;2023-06-05T06:40:45;15.30;91.80
58638;DHT22;54976;51.510;7.522;2023-06-05T06:43:46;15.60;90.80
58638;DHT22;54976;51.510;7.522;2023-06-05T06:46:47;15.60;90.60
58638;DHT22;54976;51.510;7.522;2023-06-05T06:49:49;15.60;90.40
58638;DHT22;54976;51.510;7.522;2023-06-05T06:52:49;15.90;90.50
58638;DHT22;54976;51.510;7.522;2023-06-05T06:55:50;16.20;89.00
58638;DHT22;54976;51.510;7.522;2023-06-05T06:58:53;16.20;90.30
58638;DHT22;54976;51.510;7.522;2023-06-05T07:02:16;16.40;87.10
58638;DHT22;54976;51.510;7.522;2023-06-05T07:05:17;16.50;86.90
58638;DHT22;54976;51.510;7.522;2023-06-05T07:08:20;16.80;86.20
58638;DHT22;54976;51.510;7.522;2023-06-05T07:11:20;17.20;83.10
58638;DHT22;54976;51.510;7.522;2023-06-05T07:14:22;17.70;81.00
58638;DHT22;54976;51.510;7.522;2023-06-05T07:17:23;18.10;79.40
58638;DHT22;54976;51.510;7.522;2023-06-05T07:20:23;18.20;79.90
58638;DHT22;54976;51.510;7.522;2023-06-05T07:23:24;18.20;75.30
58638;DHT22;54976;51.510;7.522;2023-06-05T07:26:25;18.80;73.30
58638;DHT22;54976;51.510;7.522;2023-06-05T07:29:27;19.30;76.50
58638;DHT22;54976;51.510;7.522;2023-06-05T07:32:28;20.00;68.40
58638;DHT22;54976;51.510;7.522;2023-06-05T07:35:29;20.30;67.70
58638;DHT22;54976;51.510;7.522;2023-06-05T07:38:29;20.40;64.00
58638;DHT22;54976;51.510;7.522;2023-06-05T07:41:30;20.60;61.00
58638;DHT22;54976;51.510;7.522;2023-06-05T07:44:31;20.50;61.40
58638;DHT22;54976;51.510;7.522;2023-06-05T07:47:31;20.30;62.10
58638;DHT22;54976;51.510;7.522;2023-06-05T07:50:32;20.70;59.30
58638;DHT22;54976;51.510;7.522;2023-06-05T07:53:32;20.90;61.10
58638;DHT22;54976;51.510;7.522;2023-06-05T07:56:34;21.10;60.50
58638;DHT22;54976;51.510;7.522;2023-06-05T07:59:34;21.30;59.40
58638;DHT22;54976;51.510;7.522;2023-06-05T08:02:35;21.90;58.30
58638;DHT22;54976;51.510;7.522;2023-06-05T08:05:38;22.40;56.30
58638;DHT22;54976;51.510;7.522;2023-06-05T08:08:39;22.40;55.40
58638;DHT22;54976;51.510;7.522;2023-06-05T08:11:40;22.60;55.00
58638;DHT22;54976;51.510;7.522;2023-06-05T08:14:42;22.60;55.40
58638;DHT22;54976;51.510;7.522;2023-06-05T08:17:42;22.60;54.10
58638;DHT22;54976;51.510;7.522;2023-06-05T08:20:43;22.80;54.20
58638;DHT22;54976;51.510;7.522;2023-06-05T08:23:43;23.10;54.10
58638;DHT22;54976;51.510;7.522;2023-06-05T08:26:44;23.50;52.00
58638;DHT22;54976;51.510;7.522;2023-06-05T08:29:45;23.50;52.20
58638;DHT22;54976;51.510;7.522;2023-06-05T08:32:45;23.00;52.50
58638;DHT22;54976;51.510;7.522;2023-06-05T08:35:46;22.70;53.20
58638;DHT22;54976;51.510;7.522;2023-06-05T08:38:47;22.80;54.50
58638;DHT22;54976;51.510;7.522;2023-06-05T08:41:50;23.30;52.60
58638;DHT22;54976;51.510;7.522;2023-06-05T08:44:52;23.10;50.20
58638;DHT22;54976;51.510;7.522;2023-06-05T08:47:54;22.40;51.80
58638;DHT22;54976;51.510;7.522;2023-06-05T08:50:59;22.40;52.00
58638;DHT22;54976;51.510;7.522;2023-06-05T08:54:03;22.30;53.60
58638;DHT22;54976;51.510;7.522;2023-06-05T08:57:12;22.10;54.30
58638;DHT22;54976;51.510;7.522;2023-06-05T09:00:13;22.30;54.00
58638;DHT22;54976;51.510;7.522;2023-06-05T09:03:15;22.50;54.00
58638;DHT22;54976;51.510;7.522;2023-06-05T09:06:18;22.50;54.00
58638;DHT22;54976;51.510;7.522;2023-06-05T09:09:19;23.10;53.40
58638;DHT22;54976;51.510;7.522;2023-06-05T09:12:20;22.80;50.90
58638;DHT22;54976;51.510;7.522;2023-06-05T09:15:22;22.40;52.30
58638;DHT22;54976;51.510;7.522;2023-06-05T09:18:24;22.80;52.50
58638;DHT22;54976;51.510;7.522;2023-06-05T09:21:27;23.40;52.80
58638;DHT22;54976;51.510;7.522;2023-06-05T09:24:33;23.90;51.20
58638;DHT22;54976;51.510;7.522;2023-06-05T09:27:34;24.10;50.30
58638;DHT22;54976;51.510;7.522;2023-06-05T09:30:53;23.80;52.30
58638;DHT22;54976;51.510;7.522;2023-06-05T09:33:56;24.00;50.60
58638;DHT22;54976;51.510;7.522;2023-06-05T09:37:00;24.00;50.60
58638;DHT22;54976;51.510;7.522;2023-06-05T09:40:02;24.10;49.50
58638;DHT22;54976;51.510;7.522;2023-06-05T09:43:14;24.00;48.90
58638;DHT22;54976;51.510;7.522;2023-06-05T09:46:16;24.20;49.90
58638;DHT22;54976;51.510;7.522;2023-06-05T09:49:17;24.40;48.50
58638;DHT22;54976;51.510;7.522;2023-06-05T09:52:19;24.30;49.40
58638;DHT22;54976;51.510;7.522;2023-06-05T09:55:20;24.50;48.10
58638;DHT22;54976;51.510;7.522;2023-06-05T09:58:23;24.60;48.20
58638;DHT22;54976;51.510;7.522;2023-06-05T10:01:24;24.20;48.50
58638;DHT22;54976;51.510;7.522;2023-06-05T10:04:29;24.60;47.90
58638;DHT22;54976;51.510;7.522;2023-06-05T10:07:33;24.40;47.50
58638;DHT22;54976;51.510;7.522;2023-06-05T10:10:37;24.50;47.30
58638;DHT22;54976;51.510;7.522;2023-06-05T10:13:38;24.70;48.10
58638;DHT22;54976;51.510;7.522;2023-06-05T10:16:39;24.90;48.40
58638;DHT22;54976;51.510;7.522;2023-06-05T10:19:43;24.80;47.50
58638;DHT22;54976;51.510;7.522;2023-06-05T10:22:44;24.70;49.50
58638;DHT22;54976;51.510;7.522;2023-06-05T10:25:47;24.40;47.10
58638;DHT22;54976;51.510;7.522;2023-06-05T10:38:51;23.50;49.30
58638;DHT22;54976;51.510;7.522;2023-06-05T10:41:52;23.40;47.60
58638;DHT22;54976;51.510;7.522;2023-06-05T10:44:53;23.20;48.40
58638;DHT22;54976;51.510;7.522;2023-06-05T10:47:53;23.00;48.80
58638;DHT22;54976;51.510;7.522;2023-06-05T10:58:08;22.50;49.40
58638;DHT22;54976;51.510;7.522;2023-06-05T11:01:18;22.60;49.90
58638;DHT22;54976;51.510;7.522;2023-06-05T11:04:20;22.50;47.70
58638;DHT22;54976;51.510;7.522;2023-06-05T11:07:22;22.50;48.90
58638;DHT22;54976;51.510;7.522;2023-06-05T11:10:23;22.70;49.50
58638;DHT22;54976;51.510;7.522;2023-06-05T11:13:24;22.90;49.40
58638;DHT22;54976;51.510;7.522;2023-06-05T11:16:26;22.90;48.10
58638;DHT22;54976;51.510;7.522;2023-06-05T11:19:35;22.90;46.00
58638;DHT22;54976;51.510;7.522;2023-06-05T11:25:55;22.90;47.50
58638;DHT22;54976;51.510;7.522;2023-06-05T11:28:59;23.00;46.30
58638;DHT22;54976;51.510;7.522;2023-06-05T11:32:00;23.10;46.50
58638;DHT22;54976;51.510;7.522;2023-06-05T11:35:01;23.20;46.20
58638;DHT22;54976;51.510;7.522;2023-06-05T11:38:15;23.20;44.80
58638;DHT22;54976;51.510;7.522;2023-06-05T11:41:16;23.10;43.20
58638;DHT22;54976;51.510;7.522;2023-06-05T11:44:34;23.10;41.20
58638;DHT22;54976;51.510;7.522;2023-06-05T11:47:36;23.10;42.10
58638;DHT22;54976;51.510;7.522;2023-06-05T11:50:37;23.20;42.60
58638;DHT22;54976;51.510;7.522;2023-06-05T11:53:44;23.40;42.40
58638;DHT22;54976;51.510;7.522;2023-06-05T11:56:46;23.60;41.80
58638;DHT22;54976;51.510;7.522;2023-06-05T11:59:52;24.00;43.10
58638;DHT22;54976;51.510;7.522;2023-06-05T12:02:53;24.40;41.90
58638;DHT22;54976;51.510;7.522;2023-06-05T12:05:54;25.30;41.70
58638;DHT22;54976;51.510;7.522;2023-06-05T12:09:06;25.80;37.50
58638;DHT22;54976;51.510;7.522;2023-06-05T12:12:09;25.90;36.20
58638;DHT22;54976;51.510;7.522;2023-06-05T12:15:17;26.20;35.90
58638;DHT22;54976;51.510;7.522;2023-06-05T12:18:19;26.90;36.20
58638;DHT22;54976;51.510;7.522;2023-06-05T12:21:24;27.80;34.80
58638;DHT22;54976;51.510;7.522;2023-06-05T12:24:25;28.20;32.60
58638;DHT22;54976;51.510;7.522;2023-06-05T12:27:32;28.30;31.80
58638;DHT22;54976;51.510;7.522;2023-06-05T12:30:40;27.90;31.20
58638;DHT22;54976;51.510;7.522;2023-06-05T12:33:48;27.80;32.80
58638;DHT22;54976;51.510;7.522;2023-06-05T12:36:49;27.60;31.40
58638;DHT22;54976;51.510;7.522;2023-06-05T12:39:50;27.60;31.10
58638;DHT22;54976;51.510;7.522;2023-06-05T12:42:51;27.60;32.10
58638;DHT22;54976;51.510;7.522;2023-06-05T12:45:52;27.80;32.10
58638;DHT22;54976;51.510;7.522;2023-06-05T12:48:53;28.20;32.60
58638;DHT22;54976;51.510;7.522;2023-06-05T12:51:54;29.20;32.40
58638;DHT22;54976;51.510;7.522;2023-06-05T12:54:55;30.00;30.90
58638;DHT22;54976;51.510;7.522;2023-06-05T12:57:56;29.90;29.70
58638;DHT22;54976;51.510;7.522;2023-06-05T13:00:57;29.90;30.00
58638;DHT22;54976;51.510;7.522;2023-06-05T13:03:58;29.70;31.00
58638;DHT22;54976;51.510;7.522;2023-06-05T13:06:58;30.40;29.60
58638;DHT22;54976;51.510;7.522;2023-06-05T13:09:59;30.40;29.10
58638;DHT22;54976;51.510;7.522;2023-06-05T13:13:00;30.50;28.80
58638;DHT22;54976;51.510;7.522;2023-06-05T13:16:00;30.90;28.10
58638;DHT22;54976;51.510;7.522;2023-06-05T13:19:01;30.50;27.90
58638;DHT22;54976;51.510;7.522;2023-06-05T13:22:02;30.00;28.20
58638;DHT22;54976;51.510;7.522;2023-06-05T13:25:05;30.20;28.70
58638;DHT22;54976;51.510;7.522;2023-06-05T13:28:07;30.30;28.70
58638;DHT22;54976;51.510;7.522;2023-06-05T13:31:07;30.40;29.30
58638;DHT22;54976;51.510;7.522;2023-06-05T13:34:08;30.70;27.30
58638;DHT22;54976;51.510;7.522;2023-06-05T13:37:09;30.80;28.60
58638;DHT22;54976;51.510;7.522;2023-06-05T13:40:10;30.30;27.80
58638;DHT22;54976;51.510;7.522;2023-06-05T13:43:11;29.90;27.70
58638;DHT22;54976;51.510;7.522;2023-06-05T13:46:11;30.20;28.90
58638;DHT22;54976;51.510;7.522;2023-06-05T13:49:12;30.40;28.00
58638;DHT22;54976;51.510;7.522;2023-06-05T13:52:12;30.20;29.30
58638;DHT22;54976;51.510;7.522;2023-06-05T13:55:13;29.90;28.10
58638;DHT22;54976;51.510;7.522;2023-06-05T13:58:14;30.10;28.30
58638;DHT22;54976;51.510;7.522;2023-06-05T14:01:15;30.50;29.30
58638;DHT22;54976;51.510;7.522;2023-06-05T14:04:15;30.40;29.00
58638;DHT22;54976;51.510;7.522;2023-06-05T14:07:16;30.80;28.00
58638;DHT22;54976;51.510;7.522;2023-06-05T14:10:18;30.60;27.60
58638;DHT22;54976;51.510;7.522;2023-06-05T14:13:18;30.50;29.00
58638;DHT22;54976;51.510;7.522;2023-06-05T14:16:19;30.70;28.50
58638;DHT22;54976;51.510;7.522;2023-06-05T14:19:20;31.00;28.80
58638;DHT22;54976;51.510;7.522;2023-06-05T14:22:21;31.10;28.50
58638;DHT22;54976;51.510;7.522;2023-06-05T14:25:22;31.50;28.20
58638;DHT22;54976;51.510;7.522;2023-06-05T14:28:22;31.30;26.80
58638;DHT22;54976;51.510;7.522;2023-06-05T14:31:23;30.90;27.70
58638;DHT22;54976;51.510;7.522;2023-06-05T14:34:25;30.30;27.70
58638;DHT22;54976;51.510;7.522;2023-06-05T14:37:26;30.10;29.30
58638;DHT22;54976;51.510;7.522;2023-06-05T14:40:27;30.20;27.80
58638;DHT22;54976;51.510;7.522;2023-06-05T14:43:27;29.80;28.10
58638;DHT22;54976;51.510;7.522;2023-06-05T14:46:28;29.60;28.40
58638;DHT22;54976;51.510;7.522;2023-06-05T14:49:28;29.50;28.90
58638;DHT22;54976;51.510;7.522;2023-06-05T14:52:29;29.50;27.60
58638;DHT22;54976;51.510;7.522;2023-06-05T14:55:30;29.30;28.10
58638;DHT22;54976;51.510;7.522;2023-06-05T14:58:30;29.70;28.50
58638;DHT22;54976;51.510;7.522;2023-06-05T15:01:31;29.50;28.80
58638;DHT22;54976;51.510;7.522;2023-06-05T15:04:32;29.50;28.90
58638;DHT22;54976;51.510;7.522;2023-06-05T15:07:41;29.50;29.90
58638;DHT22;54976;51.510;7.522;2023-06-05T15:10:42;29.30;29.20
58638;DHT22;54976;51.510;7.522;2023-06-05T15:13:42;29.20;30.00
58638;DHT22;54976;51.510;7.522;2023-06-05T15:16:43;29.60;30.00
58638;DHT22;54976;51.510;7.522;2023-06-05T15:19:44;29.80;30.50
58638;DHT22;54976;51.510;7.522;2023-06-05T15:22:45;29.90;29.00
58638;DHT22;54976;51.510;7.522;2023-06-05T15:25:46;29.80;28.40
58638;DHT22;54976;51.510;7.522;2023-06-05T15:28:47;29.20;29.10
58638;DHT22;54976;51.510;7.522;2023-06-05T15:31:47;28.50;29.20
58638;DHT22;54976;51.510;7.522;2023-06-05T15:34:48;28.20;29.60
58638;DHT22;54976;51.510;7.522;2023-06-05T15:37:49;27.70;31.50
58638;DHT22;54976;51.510;7.522;2023-06-05T15:40:49;27.40;33.00
58638;DHT22;54976;51.510;7.522;2023-06-05T15:43:50;28.00;31.90
58638;DHT22;54976;51.510;7.522;2023-06-05T15:46:50;27.90;32.10
58638;DHT22;54976;51.510;7.522;2023-06-05T15:49:51;28.20;32.30
58638;DHT22;54976;51.510;7.522;2023-06-05T15:52:52;28.20;31.10
58638;DHT22;54976;51.510;7.522;2023-06-05T15:55:53;28.10;30.60
58638;DHT22;54976;51.510;7.522;2023-06-05T15:58:54;27.90;31.30
58638;DHT22;54976;51.510;7.522;2023-06-05T16:01:55;27.50;33.20
58638;DHT22;54976;51.510;7.522;2023-06-05T16:04:57;27.20;33.60
58638;DHT22;54976;51.510;7.522;2023-06-05T16:07:58;27.30;33.30
58638;DHT22;54976;51.510;7.522;2023-06-05T16:10:59;27.10;32.20
58638;DHT22;54976;51.510;7.522;2023-06-05T16:14:01;26.80;33.10
58638;DHT22;54976;51.510;7.522;2023-06-05T16:17:03;26.60;33.30
58638;DHT22;54976;51.510;7.522;2023-06-05T16:20:05;26.50;34.10
58638;DHT22;54976;51.510;7.522;2023-06-05T16:23:06;26.40;33.90
58638;DHT22;54976;51.510;7.522;2023-06-05T16:26:07;26.30;34.80
58638;DHT22;54976;51.510;7.522;2023-06-05T16:29:07;25.90;33.90
58638;DHT22;54976;51.510;7.522;2023-06-05T16:32:10;25.70;34.90
58638;DHT22;54976;51.510;7.522;2023-06-05T16:35:10;25.60;34.90
58638;DHT22;54976;51.510;7.522;2023-06-05T16:38:11;25.60;34.90
58638;DHT22;54976;51.510;7.522;2023-06-05T16:41:11;25.50;35.50
58638;DHT22;54976;51.510;7.522;2023-06-05T16:44:12;25.40;36.60
58638;DHT22;54976;51.510;7.522;2023-06-05T16:47:13;25.40;35.60
58638;DHT22;54976;51.510;7.522;2023-06-05T16:50:13;25.10;36.40
58638;DHT22;54976;51.510;7.522;2023-06-05T16:53:17;25.10;36.70
58638;DHT22;54976;51.510;7.522;2023-06-05T16:56:18;25.10;37.50
58638;DHT22;54976;51.510;7.522;2023-06-05T16:59:19;25.10;36.80
58638;DHT22;54976;51.510;7.522;2023-06-05T17:02:19;25.00;36.70
58638;DHT22;54976;51.510;7.522;2023-06-05T17:05:20;24.90;37.50
58638;DHT22;54976;51.510;7.522;2023-06-05T17:08:22;24.90;37.80
58638;DHT22;54976;51.510;7.522;2023-06-05T17:11:22;24.70;37.20
58638;DHT22;54976;51.510;7.522;2023-06-05T17:14:23;24.50;38.00
58638;DHT22;54976;51.510;7.522;2023-06-05T17:17:24;24.40;38.00
58638;DHT22;54976;51.510;7.522;2023-06-05T17:20:24;24.30;38.20
58638;DHT22;54976;51.510;7.522;2023-06-05T17:23:25;24.20;38.50
58638;DHT22;54976;51.510;7.522;2023-06-05T17:26:26;24.10;38.00
58638;DHT22;54976;51.510;7.522;2023-06-05T17:29:28;24.10;38.40
58638;DHT22;54976;51.510;7.522;2023-06-05T17:32:29;23.90;39.10
58638;DHT22;54976;51.510;7.522;2023-06-05T17:35:31;23.90;39.70
58638;DHT22;54976;51.510;7.522;2023-06-05T17:38:31;23.80;39.90
58638;DHT22;54976;51.510;7.522;2023-06-05T17:41:32;23.70;39.60
58638;DHT22;54976;51.510;7.522;2023-06-05T17:44:33;23.70;40.30
58638;DHT22;54976;51.510;7.522;2023-06-05T17:47:33;23.50;39.50
58638;DHT22;54976;51.510;7.522;2023-06-05T17:50:34;23.50;40.20
58638;DHT22;54976;51.510;7.522;2023-06-05T17:53:35;23.40;40.10
58638;DHT22;54976;51.510;7.522;2023-06-05T17:56:35;23.50;39.70
58638;DHT22;54976;51.510;7.522;2023-06-05T17:59:37;23.30;40.40
58638;DHT22;54976;51.510;7.522;2023-06-05T18:02:38;23.20;40.90
58638;DHT22;54976;51.510;7.522;2023-06-05T18:05:39;23.20;40.80
58638;DHT22;54976;51.510;7.522;2023-06-05T18:08:39;23.20;40.60
58638;DHT22;54976;51.510;7.522;2023-06-05T18:11:43;23.00;40.60
58638;DHT22;54976;51.510;7.522;2023-06-05T18:14:44;23.00;41.30
58638;DHT22;54976;51.510;7.522;2023-06-05T18:17:45;23.00;40.60
58638;DHT22;54976;51.510;7.522;2023-06-05T18:20:45;22.90;40.50
58638;DHT22;54976;51.510;7.522;2023-06-05T18:23:46;22.80;40.60
58638;DHT22;54976;51.510;7.522;2023-06-05T18:26:47;22.70;41.10
58638;DHT22;54976;51.510;7.522;2023-06-05T18:29:47;22.60;41.10
58638;DHT22;54976;51.510;7.522;2023-06-05T18:32:48;22.60;40.90
58638;DHT22;54976;51.510;7.522;2023-06-05T18:35:49;22.60;41.20
58638;DHT22;54976;51.510;7.522;2023-06-05T18:38:49;22.50;41.50
58638;DHT22;54976;51.510;7.522;2023-06-05T18:41:50;22.40;41.80
58638;DHT22;54976;51.510;7.522;2023-06-05T18:44:51;22.30;41.60
58638;DHT22;54976;51.510;7.522;2023-06-05T18:47:52;22.30;42.20
58638;DHT22;54976;51.510;7.522;2023-06-05T18:50:52;22.20;42.10
58638;DHT22;54976;51.510;7.522;2023-06-05T18:53:54;22.10;42.40
58638;DHT22;54976;51.510;7.522;2023-06-05T18:56:55;22.00;42.50
58638;DHT22;54976;51.510;7.522;2023-06-05T18:59:55;21.90;42.60
58638;DHT22;54976;51.510;7.522;2023-06-05T19:02:56;21.90;42.60
58638;DHT22;54976;51.510;7.522;2023-06-05T19:05:57;21.80;42.80
58638;DHT22;54976;51.510;7.522;2023-06-05T19:08:58;21.70;43.00
58638;DHT22;54976;51.510;7.522;2023-06-05T19:11:59;21.70;43.30
58638;DHT22;54976;51.510;7.522;2023-06-05T19:14:59;21.50;43.40
58638;DHT22;54976;51.510;7.522;2023-06-05T19:18:00;21.40;43.60
58638;DHT22;54976;51.510;7.522;2023-06-05T19:21:02;21.40;43.80
58638;DHT22;54976;51.510;7.522;2023-06-05T19:24:03;21.40;44.10
58638;DHT22;54976;51.510;7.522;2023-06-05T19:27:04;21.20;44.10